createdAt,value
2019-05-10T00:02:54.839Z,11.77
2019-05-10T00:08:16.417Z,15.63
2019-05-10T00:13:27.657Z,13.17
2019-05-10T00:18:31.167Z,16.13
2019-05-10T00:23:34.617Z,13.00
2019-05-10T00:28:38.208Z,14.87
2019-05-10T00:33:41.652Z,13.63
2019-05-10T00:38:45.136Z,14.00
2019-05-10T00:43:48.586Z,13.63
2019-05-10T00:48:52.044Z,14.67
2019-05-10T00:53:55.511Z,14.67
2019-05-10T00:58:58.963Z,14.07
2019-05-10T01:04:02.424Z,15.33
2019-05-10T01:09:06.724Z,14.37
2019-05-10T01:14:10.244Z,14.13
2019-05-10T01:19:13.896Z,13.83
2019-05-10T01:24:17.538Z,13.40
2019-05-10T01:29:21.033Z,14.23
2019-05-10T01:34:24.495Z,13.87
2019-05-10T01:39:27.980Z,14.07
2019-05-10T01:44:31.427Z,14.37
2019-05-10T01:49:34.855Z,13.57
2019-05-10T01:54:41.213Z,13.10
2019-05-10T01:59:44.649Z,11.43
2019-05-10T02:04:48.182Z,13.33
2019-05-10T02:09:51.645Z,13.33
2019-05-10T02:14:55.416Z,13.40
2019-05-10T02:19:58.927Z,13.33
2019-05-10T02:25:02.362Z,14.23
2019-05-10T02:30:08.671Z,13.87
2019-05-10T02:35:12.314Z,13.17
2019-05-10T02:40:15.896Z,10.93
2019-05-10T02:45:20.711Z,10.80
2019-05-10T02:50:24.224Z,10.67
2019-05-10T02:55:27.982Z,10.33
2019-05-10T03:00:43.768Z,10.23
2019-05-10T03:05:49.195Z,13.20
2019-05-10T03:10:58.190Z,10.87
2019-05-10T03:16:04.869Z,10.53
2019-05-10T03:21:10.368Z,9.93
2019-05-10T03:26:13.812Z,9.77
2019-05-10T03:31:17.397Z,10.30
2019-05-10T03:36:20.873Z,10.73
2019-05-10T03:41:24.559Z,9.00
2019-05-10T03:46:27.978Z,8.87
2019-05-10T03:51:32.338Z,10.47
2019-05-10T03:56:35.824Z,9.77
2019-05-10T04:01:39.255Z,9.93
2019-05-10T04:06:42.744Z,8.40
2019-05-10T04:11:50.434Z,9.27
2019-05-10T04:42:48.206Z,11.33
2019-05-10T04:52:17.542Z,11.93
2019-05-10T04:57:22.347Z,16.57
2019-05-10T05:02:34.833Z,13.40
2019-05-10T05:07:46.246Z,13.37
2019-05-10T05:12:51.387Z,13.80
2019-05-10T05:17:55.040Z,13.40
2019-05-10T05:23:08.857Z,13.27
2019-05-10T05:28:11.465Z,14.20
2019-05-10T05:33:24.133Z,15.53
2019-05-10T05:38:49.589Z,15.63
2019-05-10T05:44:26.094Z,14.97
2019-05-10T05:49:29.752Z,14.20
2019-05-10T05:54:37.143Z,15.33
2019-05-10T05:59:48.959Z,17.27
2019-05-10T06:04:57.009Z,15.93
2019-05-10T06:10:10.088Z,16.37
2019-05-10T06:15:14.702Z,16.93
2019-05-10T06:20:21.921Z,20.10
2019-05-10T06:25:39.441Z,20.37
2019-05-10T06:30:33.205Z,19.47
2019-05-10T06:35:38.266Z,20.03
2019-05-10T06:40:47.244Z,18.43
2019-05-10T06:45:52.495Z,20.73
2019-05-10T06:50:52.894Z,22.37
2019-05-10T06:55:56.333Z,20.33
2019-05-10T07:00:59.854Z,19.07
2019-05-10T07:06:03.360Z,19.33
2019-05-10T07:11:06.963Z,17.90
2019-05-10T07:16:14.984Z,18.27
2019-05-10T07:21:16.347Z,15.97
2019-05-10T07:26:24.812Z,14.23
2019-05-10T07:31:26.621Z,13.77
2019-05-10T07:36:30.993Z,13.63
2019-05-10T07:41:35.228Z,11.87
2019-05-10T07:46:40.082Z,11.10
2019-05-10T07:51:43.879Z,11.43
2019-05-10T07:56:47.955Z,11.07
2019-05-10T08:01:51.408Z,10.83
2019-05-10T08:06:54.829Z,10.17
2019-05-10T08:12:03.271Z,9.63
2019-05-10T08:17:06.237Z,9.13
2019-05-10T08:22:09.357Z,9.13
2019-05-10T08:27:14.914Z,8.47
2019-05-10T08:32:19.386Z,9.07
2019-05-10T08:37:33.088Z,7.37
2019-05-10T08:42:40.937Z,7.63
2019-05-10T08:47:33.533Z,5.30
2019-05-10T08:52:37.035Z,5.63
2019-05-10T08:57:44.381Z,5.17
2019-05-10T09:02:48.360Z,4.93
2019-05-10T09:07:52.169Z,4.53
2019-05-10T09:12:58.079Z,3.87
2019-05-10T09:18:04.332Z,3.20
2019-05-10T09:23:08.743Z,3.03
2019-05-10T09:28:16.495Z,3.20
2019-05-10T09:33:16.199Z,3.10
2019-05-10T09:38:21.960Z,2.67
2019-05-10T09:43:24.948Z,3.27
2019-05-10T09:48:28.357Z,3.37
2019-05-10T09:53:31.786Z,3.37
2019-05-10T09:58:35.207Z,3.80
2019-05-10T10:03:43.265Z,3.47
2019-05-10T10:08:51.239Z,2.90
2019-05-10T10:13:58.573Z,3.33
2019-05-10T10:18:54.433Z,3.37
2019-05-10T10:24:00.391Z,1.93
2019-05-10T10:29:03.015Z,1.50
2019-05-10T10:34:07.630Z,2.13
2019-05-10T10:39:11.272Z,2.13
2019-05-10T10:44:14.791Z,2.73
2019-05-10T10:49:23.077Z,3.20
2019-05-10T10:54:28.132Z,3.13
2019-05-10T10:59:28.511Z,3.10
2019-05-10T11:04:31.942Z,3.10
2019-05-10T11:09:37.082Z,2.60
2019-05-10T11:14:45.209Z,3.50
2019-05-10T11:19:45.692Z,2.93
2019-05-10T11:24:51.780Z,3.07
2019-05-10T11:29:55.225Z,3.53
2019-05-10T11:34:58.726Z,3.37
2019-05-10T11:40:02.224Z,3.67
2019-05-10T11:45:07.936Z,3.97
2019-05-10T11:50:26.558Z,4.17
2019-05-10T11:55:17.607Z,2.80
2019-05-10T12:00:28.433Z,3.90
2019-05-10T12:05:26.955Z,3.70
2019-05-10T12:10:32.001Z,3.10
2019-05-10T12:15:35.690Z,3.80
2019-05-10T12:20:54.435Z,4.90
2019-05-10T12:25:58.801Z,3.70
2019-05-10T12:30:51.201Z,3.87
2019-05-10T12:35:54.865Z,4.63
2019-05-10T12:40:58.307Z,5.20
2019-05-10T12:46:01.743Z,3.67
2019-05-10T12:51:11.522Z,3.73
2019-05-10T12:56:10.775Z,4.30
2019-05-10T13:01:14.208Z,4.67
2019-05-10T13:06:19.610Z,3.37
2019-05-10T13:11:25.461Z,3.50
2019-05-10T13:16:28.015Z,3.37
2019-05-10T13:21:31.524Z,4.73
2019-05-10T13:26:34.937Z,4.10
2019-05-10T13:31:42.890Z,3.73
2019-05-10T13:36:43.567Z,3.23
2019-05-10T13:41:47.023Z,4.17
2019-05-10T13:46:50.440Z,3.80
2019-05-10T13:51:53.874Z,4.13
2019-05-10T13:56:57.302Z,3.30
2019-05-10T14:02:00.839Z,4.83
2019-05-10T14:07:04.343Z,4.70
2019-05-10T14:12:07.853Z,4.10
2019-05-10T14:17:11.266Z,4.77
2019-05-10T14:22:14.715Z,3.93
2019-05-10T14:27:18.161Z,5.10
2019-05-10T14:32:21.585Z,4.10
2019-05-10T14:37:25.031Z,4.20
2019-05-10T14:42:31.092Z,3.70
2019-05-10T14:47:33.878Z,4.03
2019-05-10T14:52:37.299Z,4.87
2019-05-10T14:57:40.786Z,5.50
2019-05-10T15:02:44.182Z,4.57
2019-05-10T15:07:50.960Z,3.37
2019-05-10T15:12:52.794Z,3.93
2019-05-10T15:18:02.014Z,7.03
2019-05-10T15:23:01.421Z,3.67
2019-05-10T15:28:04.907Z,3.90
2019-05-10T15:33:08.373Z,4.17
2019-05-10T15:38:11.804Z,4.70
2019-05-10T15:43:17.217Z,5.10
2019-05-10T15:48:20.397Z,6.40
2019-05-10T15:53:27.195Z,5.93
2019-05-10T15:58:36.642Z,5.80
2019-05-10T16:03:35.773Z,5.00
2019-05-10T16:08:39.200Z,4.50
2019-05-10T16:13:42.624Z,6.33
2019-05-10T16:18:46.121Z,5.43
2019-05-10T16:23:49.553Z,5.70
2019-05-10T16:29:01.058Z,4.60
2019-05-10T16:33:58.150Z,4.93
2019-05-10T16:39:02.116Z,5.77
2019-05-10T16:44:05.787Z,5.30
2019-05-10T16:49:09.989Z,4.53
2019-05-10T16:54:24.239Z,4.30
2019-05-10T16:59:24.263Z,9.63
2019-05-10T17:04:24.933Z,4.70
2019-05-10T17:09:29.241Z,10.67
2019-05-10T17:14:32.683Z,5.80
2019-05-10T17:19:36.248Z,4.90
2019-05-10T17:24:39.699Z,6.07
2019-05-10T17:29:44.492Z,5.67
2019-05-10T17:34:48.377Z,5.87
2019-05-10T17:39:53.679Z,6.10
2019-05-10T17:45:22.145Z,4.43
2019-05-10T17:50:25.599Z,3.50
2019-05-10T17:55:29.812Z,4.70
2019-05-10T18:00:33.295Z,4.53
2019-05-10T18:05:41.230Z,4.87
2019-05-10T18:10:41.925Z,4.97
2019-05-10T18:15:47.100Z,5.43
2019-05-10T18:20:50.528Z,13.40
2019-05-10T18:25:58.454Z,10.47
2019-05-10T18:30:59.213Z,6.97
2019-05-10T18:36:02.648Z,9.77
2019-05-10T18:41:10.060Z,8.70
2019-05-10T18:46:11.287Z,7.70
2019-05-10T18:51:18.095Z,9.83
2019-05-10T18:56:25.221Z,7.10
2019-05-10T19:01:25.123Z,6.70
2019-05-10T19:06:31.326Z,9.57
2019-05-10T19:11:39.058Z,5.50
2019-05-10T19:16:39.679Z,6.47
2019-05-10T19:21:43.105Z,6.27
2019-05-10T19:26:46.547Z,7.97
2019-05-10T19:31:49.983Z,8.87
2019-05-10T19:36:53.439Z,7.57
2019-05-10T19:42:03.644Z,7.40
2019-05-10T19:47:02.000Z,8.27
2019-05-10T19:52:05.485Z,6.80
2019-05-10T19:57:16.002Z,7.07
2019-05-10T20:02:14.068Z,7.97
2019-05-10T20:07:17.522Z,8.63
2019-05-10T20:12:20.987Z,6.87
2019-05-10T20:17:24.537Z,7.77
2019-05-10T20:22:28.163Z,10.97
2019-05-10T20:27:31.688Z,8.97
2019-05-10T20:32:35.137Z,11.33
2019-05-10T20:37:38.648Z,11.83
2019-05-10T20:42:42.057Z,9.70
2019-05-10T20:47:45.493Z,10.53
2019-05-10T20:52:48.934Z,13.13
2019-05-10T20:57:52.385Z,14.53
2019-05-10T21:02:55.825Z,13.57
2019-05-10T21:07:59.272Z,12.97
2019-05-10T21:13:02.710Z,11.13
2019-05-10T21:18:06.181Z,12.40
2019-05-10T21:23:09.607Z,14.30
2019-05-10T21:28:13.046Z,13.60
2019-05-10T21:33:16.466Z,15.20
2019-05-10T21:38:31.858Z,14.73
2019-05-10T21:43:25.084Z,13.57
2019-05-10T21:48:28.654Z,14.90
2019-05-10T21:53:32.093Z,14.93
2019-05-10T21:58:35.534Z,13.97
2019-05-10T22:03:38.967Z,14.47
2019-05-10T22:08:49.292Z,13.87
2019-05-10T22:13:47.554Z,17.33
2019-05-10T22:18:52.639Z,14.60
2019-05-10T22:23:56.273Z,15.83
2019-05-10T22:28:59.734Z,15.10
2019-05-10T22:34:03.200Z,16.20
2019-05-10T22:39:07.827Z,18.63
2019-05-10T22:44:11.510Z,16.87
2019-05-10T22:49:15.010Z,17.07
2019-05-10T22:54:18.463Z,16.93
2019-05-10T22:59:21.900Z,19.27
2019-05-10T23:04:25.345Z,23.53
2019-05-10T23:09:29.501Z,17.37
2019-05-10T23:14:32.944Z,26.07
2019-05-10T23:19:36.454Z,22.27
2019-05-10T23:24:39.889Z,19.83
2019-05-10T23:29:43.318Z,21.30
2019-05-10T23:34:46.748Z,24.00
2019-05-10T23:39:50.191Z,22.33
2019-05-10T23:44:53.630Z,25.23
2019-05-10T23:49:57.076Z,26.90
2019-05-10T23:55:00.528Z,22.27
